Terminal Aerodrome Forecast
Issued by NWS

Home | Current Version | Previous Version | Text Only | Print | Product List | Glossary On
Versions: 1 2 3 4 5 6 7 8 9 10 11 12 13 14 15 16
000
FTUS42 KMLB 091742
TAFLEE
TAF
KLEE 091742Z 0918/1018 01011G18KT P6SM SCT120 BKN200
     FM100000 01009KT P6SM FEW120 BKN200
     FM100600 36008KT P6SM SCT200
     FM101400 03011KT P6SM SCT040=

USA.gov is the U.S. government's official web portal to all federal, state and local government web resources and services.